Airfield :
LOGIN :

Register | Disclaimer

   EN    FR    IT 

 










Legend :    VFR   Marginal VFR   IFR   Intensive IFR   Very Intensive IFR
Visi :
Ceiling :
>= 8 km
>= 3000ft
5 to 8 km
1000 to 3000 ft
1500m to 5 km
500 to 1000 ft
800 to 1500m
200 to 500 ft
< 800m
< 200 ft
Symbols :   Thunderstorms  Fog  Heavy snow  Heavy precipitations  Wind > 20 kt
SIGMETs :     Misc.  Thunderstorms  Icing  Turbulence  Mountain Waves  Volcanic Ashes







- Airport Elevation : -15 ft
- IATA code : RTM


EHRD - Rotterdam Zestienhoven

CURRENT METAR :
  • 210055Z AUTO 17009KT 140V210 9999 NSC 12/09 Q1010 NOSIG

EXPIRED METARs :
  • 210025Z AUTO 18009KT 150V220 9999 NSC 12/09 Q1010 NOSIG
  • 202355Z AUTO 18010KT 160V220 9999 NSC 12/09 Q1010 NOSIG
  • 202325Z AUTO 18008KT 160V220 9999 FEW049 12/09 Q1010 NOSIG
  • 202255Z AUTO 17008KT 9999 BKN048 12/09 Q1011 NOSIG
  • 202225Z AUTO 18008KT 150V210 9999 FEW045 12/09 Q1011 NOSIG

TAF TAF EHRD
Valid from the 21 at 00:00 until the 22 at 06:00 UTC


202246Z 2100/2206 18012KT 9999 SCT020
BECMG 2105/2108 6000 -RADZ SCT010 BKN014
PROB30
TEMPO 2106/2111 4000 DZRA BKN009
BECMG 2109/2112 22015KT 9999 NSW SCT020
PROB30
TEMPO 2112/2121 23017G27KT 6000 SHRA SCT018CB
BECMG 2118/2121 20018G28KT
BECMG 2200/2203 19015KT
TEMPO 2200/2206 6000 SHRA RA BKN014 SCT018CB
BECMG 2203/2206 24016KT
No reported NOTAMs for that airfield.



MET'MAP, your aeronautical weather chart ! - Copyright ORBIFLY December 2007 - Disclaimer

ORBIFLY MET'MAP TEAM :

Programming & Development : Alexandra Zaïnal
Concept & Development : Baudouin d'Aumeries
Co-Development & Prog : Marc-Olivier Méhu
Technical & hardware support : Manuel Goepfert

Contact : metmap@orbifly.com




SOURCES & CREDITS :

   NOAA